Calumet, Minnesota
Current Conditions -  °F | °C
As of 11:15 AM on Saturday 25 Oct 2014 (Local Time) from KGPZ Reporting Station
Clear Clear  
Wind Chill: 50°   Ceiling: Unl
Heat Index: 50°   Visibility: 10mi
Dew Point: 30°   Wind: 20mph
Humidity: 47%   Direction: 310°NW
Pressure: 29.96"   Gusts: 29mph
Location:  47.32°N, 93.28°W
Report Text: KGPZ 251615Z AUTO 31017G25KT 10SM CLR 10/M01 A2996 RMK AO1
Loading
Personal Weather Stations






























Interactive Weather Map
Tropical Storm Tracking
New forecast layout! Learn more

10-Day Weather Forecast

Advertisements
Track Severe Weather on mobile